createdAt,value
2019-04-04T00:00:14.347Z,3.20
2019-04-04T00:01:27.126Z,3.30
2019-04-04T00:02:30.722Z,3.27
2019-04-04T00:03:34.300Z,2.92
2019-04-04T00:04:37.911Z,3.08
2019-04-04T00:05:41.500Z,3.02
2019-04-04T00:06:45.141Z,2.62
2019-04-04T00:07:48.747Z,5.00
2019-04-04T00:08:52.399Z,3.00
2019-04-04T00:09:55.993Z,3.00
2019-04-04T00:10:59.682Z,2.40
2019-04-04T00:12:03.291Z,3.67
2019-04-04T00:13:06.951Z,3.50
2019-04-04T00:14:12.674Z,2.67
2019-04-04T00:15:15.844Z,3.40
2019-04-04T00:16:19.441Z,3.08
2019-04-04T00:17:23.759Z,3.20
2019-04-04T00:18:28.001Z,2.80
2019-04-04T00:19:31.723Z,3.42
2019-04-04T00:20:35.379Z,3.15
2019-04-04T00:21:38.971Z,3.33
2019-04-04T00:22:42.563Z,3.33
2019-04-04T00:23:46.159Z,2.95
2019-04-04T00:24:49.790Z,3.92
2019-04-04T00:25:53.396Z,5.58
2019-04-04T00:26:57.089Z,3.40
2019-04-04T00:28:00.690Z,3.85
2019-04-04T00:29:04.451Z,6.47
2019-04-04T00:30:08.400Z,3.80
2019-04-04T00:31:11.987Z,6.80
2019-04-04T00:32:15.616Z,6.30
2019-04-04T00:33:19.289Z,3.92
2019-04-04T00:34:22.918Z,3.45
2019-04-04T00:35:26.541Z,3.02
2019-04-04T00:36:30.133Z,3.50
2019-04-04T00:37:34.473Z,3.90
2019-04-04T00:38:39.015Z,3.47
2019-04-04T00:39:42.618Z,3.27
2019-04-04T00:40:46.245Z,4.75
2019-04-04T00:41:49.854Z,3.22
2019-04-04T00:42:53.441Z,3.72
2019-04-04T00:43:57.052Z,3.95
2019-04-04T00:45:00.652Z,4.45
2019-04-04T00:46:04.363Z,3.90
2019-04-04T00:47:07.950Z,4.17
2019-04-04T00:48:11.550Z,6.33
2019-04-04T00:49:15.143Z,3.42
2019-04-04T00:50:18.736Z,3.35
2019-04-04T00:51:22.362Z,3.47
2019-04-04T00:52:26.012Z,3.92
2019-04-04T00:53:29.607Z,3.30
2019-04-04T00:54:33.280Z,3.80
2019-04-04T00:55:36.892Z,3.45
2019-04-04T00:56:40.498Z,4.30
2019-04-04T00:57:44.146Z,3.95
2019-04-04T00:58:47.761Z,4.20
2019-04-04T00:59:53.319Z,3.50
2019-04-04T01:00:56.686Z,4.35
2019-04-04T01:02:00.292Z,5.20
2019-04-04T01:03:04.019Z,3.90
2019-04-04T01:04:07.611Z,4.40
2019-04-04T01:05:11.202Z,4.15
2019-04-04T01:06:14.806Z,4.20
2019-04-04T01:07:18.388Z,4.42
2019-04-04T01:08:22.021Z,5.12
2019-04-04T01:09:25.651Z,4.28
2019-04-04T01:10:29.237Z,4.58
2019-04-04T01:11:32.877Z,3.90
2019-04-04T01:12:36.477Z,5.25
2019-04-04T01:13:40.097Z,4.78
2019-04-04T01:14:43.747Z,4.83
2019-04-04T01:15:47.344Z,4.20
2019-04-04T01:16:50.983Z,4.97
2019-04-04T01:17:54.581Z,5.53
2019-04-04T01:18:58.210Z,6.12
2019-04-04T01:20:01.811Z,5.25
2019-04-04T01:21:05.470Z,4.92
2019-04-04T01:22:09.111Z,4.50
2019-04-04T01:23:12.719Z,5.10
2019-04-04T01:24:16.352Z,6.72
2019-04-04T01:25:19.933Z,5.05
2019-04-04T01:26:23.525Z,5.12
2019-04-04T01:27:27.182Z,4.60
2019-04-04T01:28:30.827Z,5.30
2019-04-04T01:29:34.469Z,5.08
2019-04-04T01:30:38.129Z,5.17
2019-04-04T01:31:41.744Z,4.67
2019-04-04T01:32:46.259Z,5.75
2019-04-04T01:33:51.574Z,7.22
2019-04-04T01:34:55.419Z,5.62
2019-04-04T01:35:59.023Z,5.47
2019-04-04T01:37:02.612Z,5.65
2019-04-04T01:38:06.509Z,5.58
2019-04-04T01:39:10.454Z,6.37
2019-04-04T01:40:14.491Z,5.92
2019-04-04T01:41:18.133Z,7.15
2019-04-04T01:42:21.696Z,5.20
2019-04-04T01:43:25.331Z,6.33
2019-04-04T01:44:28.927Z,6.30
2019-04-04T01:45:32.596Z,5.60
2019-04-04T01:46:36.191Z,5.70
2019-04-04T01:47:39.844Z,6.92
2019-04-04T01:48:43.450Z,6.05
2019-04-04T01:49:47.169Z,7.05
2019-04-04T01:50:53.390Z,6.20
2019-04-04T01:51:57.683Z,5.90
2019-04-04T01:53:01.194Z,7.20
2019-04-04T01:54:04.799Z,7.20
2019-04-04T01:55:08.508Z,5.75
2019-04-04T01:56:12.163Z,6.80
2019-04-04T01:57:15.761Z,6.72
2019-04-04T01:58:19.353Z,7.08
2019-04-04T01:59:23.010Z,6.42
2019-04-04T02:00:26.635Z,6.72
2019-04-04T02:01:30.235Z,5.90
2019-04-04T02:02:33.814Z,7.05
2019-04-04T02:03:37.464Z,5.97
2019-04-04T02:04:41.067Z,10.80
2019-04-04T02:05:44.684Z,6.87
2019-04-04T02:06:48.308Z,6.37
2019-04-04T02:07:51.913Z,6.45
2019-04-04T02:08:55.557Z,7.03
2019-04-04T02:09:59.149Z,7.00
2019-04-04T02:11:05.274Z,7.20
2019-04-04T02:12:08.590Z,6.25
2019-04-04T02:13:12.301Z,6.53
2019-04-04T02:14:15.898Z,6.22
2019-04-04T02:15:19.561Z,7.72
2019-04-04T02:16:23.212Z,6.35
2019-04-04T02:17:26.793Z,6.78
2019-04-04T02:18:30.401Z,6.80
2019-04-04T02:19:34.006Z,9.53
2019-04-04T02:20:37.605Z,6.78
2019-04-04T02:21:41.247Z,6.92
2019-04-04T02:22:44.860Z,7.45
2019-04-04T02:23:48.478Z,10.25
2019-04-04T02:24:52.073Z,8.40
2019-04-04T02:25:55.671Z,7.53
2019-04-04T02:26:59.331Z,7.22
2019-04-04T02:28:02.934Z,6.83
2019-04-04T02:29:06.535Z,7.70
2019-04-04T02:30:14.879Z,6.33
2019-04-04T02:31:16.097Z,7.35
2019-04-04T02:32:26.112Z,7.72
2019-04-04T02:33:26.623Z,6.80
2019-04-04T02:34:30.227Z,8.05
2019-04-04T02:35:33.821Z,6.37
2019-04-04T02:36:37.520Z,7.15
2019-04-04T02:37:41.141Z,7.40
2019-04-04T02:38:47.820Z,9.90
2019-04-04T02:39:51.428Z,6.85
2019-04-04T02:40:55.030Z,7.37
2019-04-04T02:41:58.626Z,7.25
2019-04-04T02:43:02.289Z,7.83
2019-04-04T02:44:06.206Z,7.45
2019-04-04T02:45:09.951Z,7.47
2019-04-04T02:46:13.646Z,10.72
2019-04-04T02:47:18.188Z,9.18
2019-04-04T02:48:24.557Z,8.78
2019-04-04T02:49:29.310Z,10.68
2019-04-04T02:50:35.661Z,10.35
2019-04-04T02:51:41.207Z,10.13
2019-04-04T02:52:45.718Z,8.98
2019-04-04T02:53:51.823Z,9.30
2019-04-04T02:54:57.202Z,9.05
2019-04-04T02:56:02.305Z,9.05
2019-04-04T02:57:07.966Z,10.32
2019-04-04T02:58:13.881Z,8.53
2019-04-04T02:59:20.005Z,9.53
2019-04-04T03:00:20.195Z,13.43
2019-04-04T03:01:23.791Z,13.10
2019-04-04T03:02:27.428Z,10.35
2019-04-04T03:03:31.086Z,13.68
2019-04-04T03:04:34.727Z,14.07
2019-04-04T03:05:38.335Z,12.18
2019-04-04T03:06:41.936Z,14.80
2019-04-04T03:07:45.585Z,12.80
2019-04-04T03:08:49.251Z,12.25
2019-04-04T03:09:52.989Z,12.45
2019-04-04T03:10:56.666Z,14.75
2019-04-04T03:12:00.306Z,12.50
2019-04-04T03:13:03.960Z,13.08
2019-04-04T03:14:07.518Z,13.53
2019-04-04T03:15:11.662Z,11.75
2019-04-04T03:16:15.314Z,12.73
2019-04-04T03:17:18.917Z,14.18
2019-04-04T03:18:22.532Z,14.20
2019-04-04T03:19:26.205Z,13.68
2019-04-04T03:20:29.783Z,11.00
2019-04-04T03:21:33.395Z,12.53
2019-04-04T03:22:37.000Z,13.95
2019-04-04T03:23:40.679Z,12.40
2019-04-04T03:24:45.095Z,11.83
2019-04-04T03:25:49.014Z,13.00
2019-04-04T03:26:53.576Z,15.90
2019-04-04T03:27:58.299Z,13.18
2019-04-04T03:29:05.543Z,15.38
2019-04-04T03:30:13.132Z,14.10
2019-04-04T03:31:13.327Z,13.05
2019-04-04T03:32:17.557Z,15.70
2019-04-04T03:33:21.235Z,12.40
2019-04-04T03:34:24.898Z,12.33
2019-04-04T03:35:29.480Z,12.33
2019-04-04T03:36:33.980Z,15.58
2019-04-04T03:37:40.458Z,16.85
2019-04-04T03:38:46.091Z,13.58
2019-04-04T03:39:51.907Z,12.93
2019-04-04T03:40:57.444Z,12.20
2019-04-04T03:41:58.642Z,13.93
2019-04-04T03:43:02.272Z,10.35
2019-04-04T03:44:05.865Z,13.95
2019-04-04T03:45:09.647Z,12.00
2019-04-04T03:46:13.289Z,12.28
2019-04-04T03:47:16.940Z,15.00
2019-04-04T03:48:20.524Z,13.98
2019-04-04T03:49:24.761Z,11.10
2019-04-04T03:50:30.238Z,12.40
2019-04-04T03:51:37.124Z,11.88
2019-04-04T03:52:43.377Z,11.28
2019-04-04T03:53:48.661Z,14.43
2019-04-04T03:54:54.999Z,11.10
2019-04-04T03:55:59.936Z,13.05
2019-04-04T03:57:01.675Z,12.53
2019-04-04T03:58:05.281Z,11.30
2019-04-04T03:59:08.958Z,9.70
2019-04-04T04:00:15.869Z,11.73
2019-04-04T04:01:19.523Z,12.25
2019-04-04T04:02:23.146Z,11.90
2019-04-04T04:03:26.746Z,20.23
2019-04-04T04:04:30.358Z,18.70
2019-04-04T04:05:35.931Z,13.35
2019-04-04T04:06:42.133Z,12.95
2019-04-04T04:07:45.854Z,10.35
2019-04-04T04:08:53.627Z,12.65
2019-04-04T04:09:59.335Z,10.18
2019-04-04T04:11:04.620Z,14.75
2019-04-04T04:12:10.055Z,9.48
2019-04-04T04:13:10.910Z,11.95
2019-04-04T04:14:14.564Z,10.90
2019-04-04T04:15:18.230Z,10.65
2019-04-04T04:16:21.829Z,12.45
2019-04-04T04:17:25.438Z,9.68
2019-04-04T04:18:29.038Z,11.55
2019-04-04T04:19:32.689Z,10.85
2019-04-04T04:20:37.646Z,11.50
2019-04-04T04:21:43.229Z,13.10
2019-04-04T04:22:50.336Z,15.23
2019-04-04T04:23:56.311Z,12.73
2019-04-04T04:25:01.964Z,19.37
2019-04-04T04:26:02.526Z,14.13
2019-04-04T04:27:06.123Z,16.73
2019-04-04T04:28:09.774Z,18.55
2019-04-04T04:29:13.391Z,17.80
2019-04-04T04:30:17.112Z,16.52
2019-04-04T04:31:20.711Z,13.80
2019-04-04T04:32:24.329Z,15.30
2019-04-04T04:33:29.371Z,13.58
2019-04-04T04:34:34.247Z,70.70
2019-04-04T04:35:41.177Z,67.67
2019-04-04T04:36:43.220Z,26.12
2019-04-04T04:37:46.826Z,27.35
2019-04-04T04:38:50.483Z,23.07
2019-04-04T04:39:54.097Z,21.77
2019-04-04T04:40:57.730Z,23.62
2019-04-04T04:42:01.351Z,14.28
2019-04-04T04:43:05.023Z,18.42
2019-04-04T04:44:08.632Z,14.73
2019-04-04T04:45:12.647Z,20.45
2019-04-04T04:46:17.879Z,52.48
2019-04-04T04:47:23.859Z,35.17
2019-04-04T04:48:30.701Z,26.60
2019-04-04T04:49:35.301Z,21.17
2019-04-04T04:50:40.014Z,21.77
2019-04-04T04:51:44.148Z,19.50
2019-04-04T04:52:48.154Z,19.85
2019-04-04T04:53:51.771Z,38.02
2019-04-04T04:54:55.543Z,115.28
2019-04-04T04:56:00.487Z,64.15
2019-04-04T04:57:05.022Z,35.10
2019-04-04T04:58:10.248Z,21.52
2019-04-04T04:59:14.077Z,21.70
2019-04-04T05:00:17.810Z,19.70
2019-04-04T05:01:21.431Z,16.37
2019-04-04T05:02:25.090Z,16.55
2019-04-04T05:03:28.687Z,20.95
2019-04-04T05:04:32.294Z,20.50
2019-04-04T05:05:35.893Z,41.42
2019-04-04T05:06:39.492Z,38.23
2019-04-04T05:07:43.140Z,22.15
2019-04-04T05:08:46.732Z,20.57
2019-04-04T05:09:50.360Z,17.05
2019-04-04T05:10:53.971Z,18.50
2019-04-04T05:11:57.577Z,21.60
2019-04-04T05:13:01.235Z,24.02
2019-04-04T05:14:04.949Z,18.05
2019-04-04T05:15:08.880Z,15.45
2019-04-04T05:16:12.484Z,16.95
2019-04-04T05:17:16.086Z,30.15
2019-04-04T05:18:19.690Z,57.65
2019-04-04T05:19:23.334Z,35.65
2019-04-04T05:20:29.816Z,24.52
2019-04-04T05:21:34.562Z,22.27
2019-04-04T05:22:39.793Z,32.40
2019-04-04T05:23:42.807Z,21.90
2019-04-04T05:24:47.312Z,21.33
2019-04-04T05:25:54.120Z,18.65
2019-04-04T05:26:57.032Z,18.27
2019-04-04T05:28:00.655Z,19.60
2019-04-04T05:29:04.430Z,27.93
2019-04-04T05:30:08.720Z,18.25
2019-04-04T05:31:12.463Z,23.45
2019-04-04T05:32:16.178Z,22.85
2019-04-04T05:33:22.721Z,20.30
2019-04-04T05:34:25.115Z,17.67
2019-04-04T05:35:28.724Z,19.23
2019-04-04T05:36:32.342Z,30.35
2019-04-04T05:37:38.278Z,22.65
2019-04-04T05:38:42.893Z,32.45
2019-04-04T05:39:51.023Z,28.83
2019-04-04T05:40:53.262Z,27.75
2019-04-04T05:42:00.372Z,15.55
2019-04-04T05:43:04.204Z,23.75
2019-04-04T05:44:09.976Z,15.65
2019-04-04T05:45:14.447Z,16.12
2019-04-04T05:46:19.127Z,17.65
2019-04-04T05:47:23.932Z,25.85
2019-04-04T05:48:29.200Z,23.00
2019-04-04T05:49:32.873Z,19.07
2019-04-04T05:50:36.527Z,18.65
2019-04-04T05:51:40.140Z,19.70
2019-04-04T05:52:44.076Z,19.48
2019-04-04T05:53:47.685Z,18.55
2019-04-04T05:54:51.292Z,19.80
2019-04-04T05:55:54.933Z,18.82
2019-04-04T05:56:58.554Z,18.60
2019-04-04T05:58:02.159Z,19.40
2019-04-04T05:59:05.838Z,25.27
2019-04-04T06:00:11.875Z,20.35
2019-04-04T06:01:17.336Z,19.30
2019-04-04T06:02:20.963Z,21.20
2019-04-04T06:03:24.576Z,17.05
2019-04-04T06:04:28.151Z,16.77
2019-04-04T06:05:32.034Z,16.95
2019-04-04T06:06:35.782Z,17.95
2019-04-04T06:07:39.380Z,14.85
2019-04-04T06:08:43.417Z,18.52
2019-04-04T06:09:47.139Z,17.17
2019-04-04T06:10:50.920Z,17.50
2019-04-04T06:11:54.958Z,17.70
2019-04-04T06:12:58.588Z,18.10
2019-04-04T06:14:02.761Z,19.95
2019-04-04T06:15:07.512Z,21.00
2019-04-04T06:16:11.163Z,20.45
2019-04-04T06:17:14.832Z,17.48
2019-04-04T06:18:18.447Z,20.08
2019-04-04T06:19:22.051Z,16.25
2019-04-04T06:20:25.776Z,16.80
2019-04-04T06:21:29.386Z,17.25
2019-04-04T06:22:33.007Z,16.85
2019-04-04T06:23:36.605Z,15.50
2019-04-04T06:24:40.339Z,15.43
2019-04-04T06:25:44.294Z,17.92
2019-04-04T06:26:47.866Z,18.60
2019-04-04T06:27:51.521Z,17.35
2019-04-04T06:28:55.140Z,16.60
2019-04-04T06:29:58.750Z,17.73
2019-04-04T06:31:02.415Z,15.32
2019-04-04T06:32:06.065Z,18.52
2019-04-04T06:33:09.851Z,15.48
2019-04-04T06:34:13.471Z,15.50
2019-04-04T06:35:17.081Z,14.20
2019-04-04T06:36:20.752Z,21.02
2019-04-04T06:37:24.404Z,18.40
2019-04-04T06:38:28.011Z,16.60
2019-04-04T06:39:31.663Z,17.55
2019-04-04T06:40:35.266Z,17.23
2019-04-04T06:41:38.882Z,16.65
2019-04-04T06:42:42.488Z,17.35
2019-04-04T06:43:46.141Z,17.37
2019-04-04T06:44:49.882Z,17.62
2019-04-04T06:45:53.509Z,18.60
2019-04-04T06:46:57.117Z,15.58
2019-04-04T06:48:00.760Z,18.32
2019-04-04T06:49:05.105Z,18.15
2019-04-04T06:50:09.123Z,19.02
2019-04-04T06:51:14.233Z,17.73
2019-04-04T06:52:18.562Z,19.32
2019-04-04T06:53:22.825Z,19.07
2019-04-04T06:54:26.507Z,20.90
2019-04-04T06:55:30.109Z,20.00
2019-04-04T06:56:33.715Z,19.55
2019-04-04T06:57:37.589Z,19.02
2019-04-04T06:58:41.269Z,21.93
2019-04-04T06:59:44.881Z,20.88
2019-04-04T07:00:49.978Z,24.95
2019-04-04T07:01:53.835Z,20.95
2019-04-04T07:02:57.444Z,17.80
2019-04-04T07:04:01.032Z,18.82
2019-04-04T07:05:06.871Z,18.82
2019-04-04T07:06:10.952Z,24.50
2019-04-04T07:07:14.552Z,21.87
2019-04-04T07:08:18.156Z,21.70
2019-04-04T07:09:21.802Z,16.75
2019-04-04T07:10:25.481Z,19.05
2019-04-04T07:11:29.084Z,18.12
2019-04-04T07:12:32.737Z,17.42
2019-04-04T07:13:42.112Z,19.75
2019-04-04T07:14:46.327Z,19.27
2019-04-04T07:16:03.282Z,16.75
2019-04-04T07:16:52.228Z,16.82
2019-04-04T07:17:55.919Z,22.52
2019-04-04T07:18:59.597Z,16.10
2019-04-04T07:20:04.534Z,18.02
2019-04-04T07:21:08.145Z,17.45
2019-04-04T07:22:11.744Z,15.50
2019-04-04T07:23:15.396Z,21.45
2019-04-04T07:24:18.992Z,20.00
2019-04-04T07:25:22.663Z,18.55
2019-04-04T07:26:26.269Z,14.95
2019-04-04T07:27:29.887Z,18.95
2019-04-04T07:28:33.496Z,19.12
2019-04-04T07:29:37.135Z,18.15
2019-04-04T07:30:40.809Z,17.85
2019-04-04T07:31:44.412Z,18.30
2019-04-04T07:32:48.017Z,18.80
2019-04-04T07:33:51.631Z,20.72
2019-04-04T07:34:55.288Z,18.45
2019-04-04T07:35:58.989Z,16.82
2019-04-04T07:37:02.593Z,19.20
2019-04-04T07:38:06.250Z,17.57
2019-04-04T07:39:12.228Z,18.82
2019-04-04T07:40:15.319Z,20.68
2019-04-04T07:41:18.913Z,18.32
2019-04-04T07:42:22.535Z,18.80
2019-04-04T07:43:26.248Z,20.37
2019-04-04T07:44:29.854Z,24.15
2019-04-04T07:45:33.469Z,16.17
2019-04-04T07:46:37.083Z,18.23
2019-04-04T07:47:40.695Z,26.75
2019-04-04T07:48:44.344Z,18.15
2019-04-04T07:49:47.954Z,18.12
2019-04-04T07:50:51.676Z,16.25
2019-04-04T07:51:55.265Z,16.95
2019-04-04T07:52:58.872Z,19.02
2019-04-04T07:54:02.484Z,17.17
2019-04-04T07:55:10.067Z,14.18
2019-04-04T07:56:14.237Z,16.95
2019-04-04T07:57:19.860Z,17.15
2019-04-04T07:58:22.905Z,16.60
2019-04-04T07:59:26.523Z,15.85
2019-04-04T08:00:30.212Z,17.95
2019-04-04T08:01:33.860Z,19.45
2019-04-04T08:02:37.469Z,17.73
2019-04-04T08:03:41.076Z,18.15
2019-04-04T08:04:44.677Z,16.00
2019-04-04T08:05:48.352Z,20.25
2019-04-04T08:06:52.011Z,16.52
2019-04-04T08:07:55.620Z,20.95
2019-04-04T08:08:59.236Z,17.67
2019-04-04T08:10:03.206Z,15.90
2019-04-04T08:11:06.812Z,16.62
2019-04-04T08:12:10.543Z,15.80
2019-04-04T08:13:14.154Z,18.35
2019-04-04T08:14:17.751Z,22.13
2019-04-04T08:15:21.435Z,18.30
2019-04-04T08:16:25.162Z,15.38
2019-04-04T08:17:28.768Z,22.82
2019-04-04T08:18:32.405Z,16.62
2019-04-04T08:19:36.025Z,17.73
2019-04-04T08:20:39.668Z,14.58
2019-04-04T08:21:43.297Z,15.98
2019-04-04T08:22:46.935Z,16.25
2019-04-04T08:23:50.539Z,17.10
2019-04-04T08:24:54.196Z,15.32
2019-04-04T08:25:57.804Z,18.07
2019-04-04T08:27:01.474Z,17.87
2019-04-04T08:28:05.079Z,15.20
2019-04-04T08:29:08.729Z,15.20
2019-04-04T08:30:12.552Z,13.15
2019-04-04T08:31:16.341Z,16.75
2019-04-04T08:32:19.993Z,15.40
2019-04-04T08:33:23.660Z,15.70
2019-04-04T08:34:27.272Z,14.00
2019-04-04T08:35:30.875Z,15.53
2019-04-04T08:36:35.882Z,15.23
2019-04-04T08:37:39.627Z,15.25
2019-04-04T08:38:43.293Z,15.50
2019-04-04T08:39:46.892Z,13.85
2019-04-04T08:40:50.508Z,18.92
2019-04-04T08:41:54.185Z,16.00
2019-04-04T08:42:57.862Z,17.42
2019-04-04T08:44:01.461Z,16.65
2019-04-04T08:45:06.809Z,19.25
2019-04-04T08:46:10.485Z,19.23
2019-04-04T08:47:14.194Z,18.45
2019-04-04T08:48:17.765Z,16.35
2019-04-04T08:49:21.358Z,15.55
2019-04-04T08:50:25.024Z,17.52
2019-04-04T08:51:28.629Z,19.73
2019-04-04T08:52:32.357Z,16.55
2019-04-04T08:53:40.343Z,15.70
2019-04-04T08:54:41.221Z,18.65
2019-04-04T08:55:44.843Z,17.23
2019-04-04T08:56:48.440Z,27.30
2019-04-04T08:57:52.111Z,15.90
2019-04-04T08:58:55.717Z,19.70
2019-04-04T08:59:59.341Z,18.10
2019-04-04T09:01:03.016Z,18.10
2019-04-04T09:02:06.751Z,22.50
2019-04-04T09:03:10.533Z,19.57
2019-04-04T09:04:14.144Z,20.17
2019-04-04T09:05:17.754Z,19.23
2019-04-04T09:06:21.364Z,17.85
2019-04-04T09:07:25.000Z,18.40
2019-04-04T09:08:28.604Z,20.10
2019-04-04T09:09:34.642Z,18.32
2019-04-04T09:10:37.578Z,19.00
2019-04-04T09:11:41.316Z,19.23
2019-04-04T09:12:44.921Z,19.15
2019-04-04T09:13:48.537Z,17.45
2019-04-04T09:14:52.286Z,18.30
2019-04-04T09:15:55.903Z,18.15
2019-04-04T09:16:59.489Z,17.95
2019-04-04T09:18:03.098Z,16.73
2019-04-04T09:19:06.763Z,25.08
2019-04-04T09:20:10.628Z,17.20
2019-04-04T09:21:14.290Z,16.65
2019-04-04T09:22:17.902Z,22.42
2019-04-04T09:23:21.518Z,19.00
2019-04-04T09:24:25.121Z,21.45
2019-04-04T09:25:28.744Z,20.92
2019-04-04T09:26:32.391Z,17.98
2019-04-04T09:27:36.187Z,18.32
2019-04-04T09:28:39.789Z,17.17
2019-04-04T09:29:43.392Z,18.42
2019-04-04T09:30:46.996Z,17.07
2019-04-04T09:31:50.586Z,21.25
2019-04-04T09:32:54.255Z,16.50
2019-04-04T09:33:57.862Z,21.62
2019-04-04T09:35:01.482Z,16.95
2019-04-04T09:36:05.300Z,20.15
2019-04-04T09:37:09.033Z,17.57
2019-04-04T09:38:12.639Z,18.92
2019-04-04T09:39:16.249Z,14.20
2019-04-04T09:40:19.921Z,17.55
2019-04-04T09:41:23.587Z,17.00
2019-04-04T09:42:27.265Z,17.67
2019-04-04T09:43:30.916Z,18.75
2019-04-04T09:44:34.526Z,16.65
2019-04-04T09:45:38.145Z,19.92
2019-04-04T09:46:41.758Z,21.00
2019-04-04T09:47:45.413Z,19.85
2019-04-04T09:48:49.024Z,17.32
2019-04-04T09:49:52.690Z,16.90
2019-04-04T09:50:56.333Z,15.80
2019-04-04T09:51:59.950Z,19.65
2019-04-04T09:53:03.695Z,17.02
2019-04-04T09:54:07.405Z,15.75
2019-04-04T09:55:11.155Z,17.67
2019-04-04T09:56:14.759Z,17.95
2019-04-04T09:57:18.380Z,15.30
2019-04-04T09:58:21.983Z,18.00
2019-04-04T09:59:25.627Z,15.18
2019-04-04T10:00:29.222Z,16.45
2019-04-04T10:01:32.813Z,19.15
2019-04-04T10:02:36.529Z,15.03
2019-04-04T10:03:40.131Z,14.85
2019-04-04T10:04:43.751Z,16.35
2019-04-04T10:05:47.367Z,17.00
2019-04-04T10:06:51.008Z,16.00
2019-04-04T10:07:54.613Z,15.75
2019-04-04T10:08:58.210Z,16.93
2019-04-04T10:10:01.878Z,15.53
2019-04-04T10:11:05.536Z,19.75
2019-04-04T10:12:09.261Z,17.02
2019-04-04T10:13:12.865Z,19.65
2019-04-04T10:14:16.510Z,14.15
2019-04-04T10:15:20.110Z,20.35
2019-04-04T10:16:23.756Z,17.35
2019-04-04T10:17:27.354Z,17.45
2019-04-04T10:18:31.014Z,16.80
2019-04-04T10:19:34.624Z,19.27
2019-04-04T10:20:38.241Z,16.10
2019-04-04T10:21:41.875Z,18.98
2019-04-04T10:22:45.478Z,16.75
2019-04-04T10:23:49.124Z,19.10
2019-04-04T10:24:52.761Z,18.17
2019-04-04T10:25:56.409Z,27.93
2019-04-04T10:27:00.135Z,19.07
2019-04-04T10:28:03.760Z,18.60
2019-04-04T10:29:07.450Z,26.95
2019-04-04T10:30:11.707Z,17.37
2019-04-04T10:31:15.328Z,20.68
2019-04-04T10:32:18.931Z,21.15
2019-04-04T10:33:22.580Z,18.73
2019-04-04T10:34:28.347Z,20.57
2019-04-04T10:35:31.469Z,18.82
2019-04-04T10:36:35.109Z,19.65
2019-04-04T10:37:38.685Z,21.62
2019-04-04T10:38:42.346Z,27.15
2019-04-04T10:39:45.972Z,22.65
2019-04-04T10:40:49.769Z,21.97
2019-04-04T10:41:53.356Z,21.00
2019-04-04T10:42:56.984Z,21.40
2019-04-04T10:44:00.638Z,21.85
2019-04-04T10:45:06.687Z,22.27
2019-04-04T10:46:10.307Z,20.80
2019-04-04T10:47:13.917Z,21.68
2019-04-04T10:48:17.530Z,24.32
2019-04-04T10:49:21.189Z,18.67
2019-04-04T10:50:24.802Z,20.85
2019-04-04T10:51:28.417Z,23.10
2019-04-04T10:52:32.245Z,20.65
2019-04-04T10:53:35.878Z,19.62
2019-04-04T10:54:39.538Z,19.50
2019-04-04T10:55:43.150Z,21.17
2019-04-04T10:56:46.760Z,19.82
2019-04-04T10:57:50.379Z,20.65
2019-04-04T10:58:53.991Z,26.48
2019-04-04T10:59:57.630Z,19.62
2019-04-04T11:01:01.241Z,21.12
2019-04-04T11:02:04.997Z,22.05
2019-04-04T11:03:08.615Z,23.15
2019-04-04T11:04:12.234Z,21.27
2019-04-04T11:05:16.237Z,22.13
2019-04-04T11:06:19.840Z,21.82
2019-04-04T11:07:23.447Z,25.75
2019-04-04T11:08:27.051Z,23.92
2019-04-04T11:09:41.453Z,23.87
2019-04-04T11:10:35.980Z,20.95
2019-04-04T11:11:39.622Z,27.13
2019-04-04T11:12:43.228Z,23.65
2019-04-04T11:13:46.830Z,24.98
2019-04-04T11:14:50.449Z,24.07
2019-04-04T11:15:54.105Z,25.20
2019-04-04T11:17:00.525Z,25.65
2019-04-04T11:18:04.136Z,22.02
2019-04-04T11:19:09.725Z,23.75
2019-04-04T11:20:13.324Z,26.02
2019-04-04T11:21:17.000Z,22.42
2019-04-04T11:22:20.637Z,26.70
2019-04-04T11:23:24.416Z,26.52
2019-04-04T11:24:28.037Z,26.82
2019-04-04T11:25:31.645Z,29.63
2019-04-04T11:26:35.300Z,26.80
2019-04-04T11:27:38.926Z,33.73
2019-04-04T11:28:42.537Z,27.05
2019-04-04T11:29:46.147Z,26.00
2019-04-04T11:30:49.759Z,30.52
2019-04-04T11:31:53.421Z,29.40
2019-04-04T11:32:57.929Z,29.32
2019-04-04T11:34:01.555Z,25.37
2019-04-04T11:35:06.525Z,26.82
2019-04-04T11:36:10.139Z,27.80
2019-04-04T11:37:13.810Z,27.35
2019-04-04T11:38:17.518Z,28.27
2019-04-04T11:39:21.137Z,26.30
2019-04-04T11:40:24.740Z,27.95
2019-04-04T11:41:28.349Z,29.95
2019-04-04T11:42:32.027Z,29.45
2019-04-04T11:43:35.648Z,31.48
2019-04-04T11:44:39.254Z,26.02
2019-04-04T11:45:42.860Z,25.32
2019-04-04T11:46:46.475Z,26.85
2019-04-04T11:47:50.134Z,27.42
2019-04-04T11:48:53.745Z,27.95
2019-04-04T11:49:57.365Z,33.75
2019-04-04T11:51:00.979Z,27.90
2019-04-04T11:52:04.721Z,27.17
2019-04-04T11:53:08.369Z,26.55
2019-04-04T11:54:11.978Z,25.02
2019-04-04T11:55:15.629Z,28.77
2019-04-04T11:56:19.254Z,27.85
2019-04-04T11:57:23.992Z,27.25
2019-04-04T11:58:27.781Z,27.60
2019-04-04T11:59:31.421Z,25.90
2019-04-04T12:00:36.757Z,26.95
2019-04-04T12:01:45.143Z,28.57
2019-04-04T12:02:48.752Z,25.60
2019-04-04T12:03:52.359Z,25.77
2019-04-04T12:04:57.797Z,28.00
2019-04-04T12:06:01.350Z,27.40
2019-04-04T12:07:05.142Z,33.25
2019-04-04T12:08:08.755Z,26.15
2019-04-04T12:09:12.385Z,28.12
2019-04-04T12:10:16.369Z,25.30
2019-04-04T12:11:22.441Z,29.40
2019-04-04T12:12:25.243Z,28.17
2019-04-04T12:13:28.907Z,28.25
2019-04-04T12:14:32.556Z,31.95
2019-04-04T12:15:36.212Z,29.20
2019-04-04T12:16:39.804Z,29.52
2019-04-04T12:17:43.415Z,26.60
2019-04-04T12:18:47.041Z,27.13
2019-04-04T12:19:50.650Z,27.62
2019-04-04T12:20:54.315Z,29.67
2019-04-04T12:21:57.932Z,35.08
2019-04-04T12:23:01.536Z,34.18
2019-04-04T12:24:05.162Z,29.70
2019-04-04T12:25:09.123Z,32.45
2019-04-04T12:26:12.777Z,30.00
2019-04-04T12:27:16.384Z,28.35
2019-04-04T12:28:19.995Z,31.17
2019-04-04T12:29:23.599Z,28.83
2019-04-04T12:30:27.219Z,30.30
2019-04-04T12:31:30.887Z,29.40
2019-04-04T12:32:34.511Z,31.15
2019-04-04T12:33:38.123Z,29.48
2019-04-04T12:34:41.736Z,29.77
2019-04-04T12:35:45.354Z,32.78
2019-04-04T12:36:49.073Z,32.45
2019-04-04T12:37:52.678Z,31.48
2019-04-04T12:38:56.286Z,31.17
2019-04-04T12:39:59.908Z,28.85
2019-04-04T12:41:03.524Z,37.95
2019-04-04T12:42:07.186Z,28.07
2019-04-04T12:43:10.812Z,31.48
2019-04-04T12:44:14.433Z,29.23
2019-04-04T12:45:18.171Z,30.57
2019-04-04T12:46:21.791Z,32.08
2019-04-04T12:47:25.457Z,31.33
2019-04-04T12:48:29.082Z,28.77
2019-04-04T12:49:32.775Z,29.07
2019-04-04T12:50:36.390Z,33.80
2019-04-04T12:51:40.008Z,31.35
2019-04-04T12:52:43.654Z,30.20
2019-04-04T12:53:47.267Z,32.67
2019-04-04T12:54:50.875Z,32.48
2019-04-04T12:55:54.493Z,33.42
2019-04-04T12:56:58.099Z,30.55
2019-04-04T12:58:01.746Z,31.17
2019-04-04T12:59:05.427Z,33.78
2019-04-04T13:00:10.281Z,35.40
2019-04-04T13:01:14.072Z,28.60
2019-04-04T13:02:17.687Z,30.00
2019-04-04T13:03:22.541Z,35.65
2019-04-04T13:04:31.651Z,31.37
2019-04-04T13:05:31.562Z,32.67
2019-04-04T13:06:35.174Z,33.02
2019-04-04T13:07:38.780Z,34.45
2019-04-04T13:08:42.383Z,28.75
2019-04-04T13:09:46.026Z,33.67
2019-04-04T13:10:49.643Z,33.80
2019-04-04T13:11:53.260Z,31.62
2019-04-04T13:12:56.878Z,32.70
2019-04-04T13:14:00.537Z,32.70
2019-04-04T13:15:06.429Z,36.85
2019-04-04T13:16:10.033Z,32.90
2019-04-04T13:17:13.696Z,34.73
2019-04-04T13:18:17.264Z,31.30
2019-04-04T13:19:20.917Z,36.77
2019-04-04T13:20:24.592Z,35.23
2019-04-04T13:21:28.267Z,34.15
2019-04-04T13:22:31.876Z,33.65
2019-04-04T13:23:35.477Z,35.28
2019-04-04T13:24:39.126Z,37.25
2019-04-04T13:25:42.741Z,34.88
2019-04-04T13:26:46.360Z,34.48
2019-04-04T13:27:49.973Z,35.78
2019-04-04T13:28:53.635Z,38.70
2019-04-04T13:29:57.313Z,30.60
2019-04-04T13:31:00.956Z,32.15
2019-04-04T13:32:04.650Z,33.48
2019-04-04T13:33:08.315Z,37.10
2019-04-04T13:34:11.946Z,34.18
2019-04-04T13:35:15.902Z,34.92
2019-04-04T13:36:19.546Z,33.48
2019-04-04T13:37:23.159Z,36.98
2019-04-04T13:38:26.763Z,34.08
2019-04-04T13:39:30.394Z,40.20
2019-04-04T13:40:44.759Z,37.70
2019-04-04T13:41:39.394Z,40.58
2019-04-04T13:42:43.022Z,38.13
2019-04-04T13:43:46.688Z,46.42
2019-04-04T13:44:50.657Z,51.23
2019-04-04T13:45:55.616Z,46.18
2019-04-04T13:47:02.737Z,39.23
2019-04-04T13:48:04.771Z,40.85